sensor_id;sensor_type;location;lat;lon;timestamp;temperature;humidity
11540;DHT22;5826;54.756;9.192;2022-12-10T00:01:09;1.30;99.90
11540;DHT22;5826;54.756;9.192;2022-12-10T00:03:35;1.30;99.90
11540;DHT22;5826;54.756;9.192;2022-12-10T00:06:06;1.30;99.90
11540;DHT22;5826;54.756;9.192;2022-12-10T00:08:33;1.30;99.90
11540;DHT22;5826;54.756;9.192;2022-12-10T00:10:59;1.30;99.90
11540;DHT22;5826;54.756;9.192;2022-12-10T00:13:24;1.30;99.90
11540;DHT22;5826;54.756;9.192;2022-12-10T00:15:50;1.30;99.90
11540;DHT22;5826;54.756;9.192;2022-12-10T00:18:15;1.30;99.90
11540;DHT22;5826;54.756;9.192;2022-12-10T00:20:41;1.30;99.90
11540;DHT22;5826;54.756;9.192;2022-12-10T00:23:06;1.30;99.90
11540;DHT22;5826;54.756;9.192;2022-12-10T00:25:32;1.40;99.90
11540;DHT22;5826;54.756;9.192;2022-12-10T00:27:58;1.40;99.90
11540;DHT22;5826;54.756;9.192;2022-12-10T00:30:24;1.40;99.90
11540;DHT22;5826;54.756;9.192;2022-12-10T00:32:49;1.50;99.90
11540;DHT22;5826;54.756;9.192;2022-12-10T00:35:15;1.50;99.90
11540;DHT22;5826;54.756;9.192;2022-12-10T00:37:40;1.60;99.90
11540;DHT22;5826;54.756;9.192;2022-12-10T00:40:07;1.60;99.90
11540;DHT22;5826;54.756;9.192;2022-12-10T00:42:32;1.60;99.90
11540;DHT22;5826;54.756;9.192;2022-12-10T00:44:58;1.60;99.90
11540;DHT22;5826;54.756;9.192;2022-12-10T00:47:23;1.60;99.90
11540;DHT22;5826;54.756;9.192;2022-12-10T00:49:50;1.60;99.90
11540;DHT22;5826;54.756;9.192;2022-12-10T00:52:15;1.70;99.90
11540;DHT22;5826;54.756;9.192;2022-12-10T00:54:41;1.70;99.90
11540;DHT22;5826;54.756;9.192;2022-12-10T00:57:07;1.70;99.90
11540;DHT22;5826;54.756;9.192;2022-12-10T00:59:32;1.60;99.90
11540;DHT22;5826;54.756;9.192;2022-12-10T01:01:58;1.70;99.90
11540;DHT22;5826;54.756;9.192;2022-12-10T01:04:24;1.70;99.90
11540;DHT22;5826;54.756;9.192;2022-12-10T01:06:51;1.70;99.90
11540;DHT22;5826;54.756;9.192;2022-12-10T01:09:24;1.70;99.90
11540;DHT22;5826;54.756;9.192;2022-12-10T01:11:50;1.70;99.90
11540;DHT22;5826;54.756;9.192;2022-12-10T01:14:19;1.70;99.90
11540;DHT22;5826;54.756;9.192;2022-12-10T01:16:45;1.70;99.90
11540;DHT22;5826;54.756;9.192;2022-12-10T01:19:11;1.80;99.90
11540;DHT22;5826;54.756;9.192;2022-12-10T01:21:37;1.80;99.90
11540;DHT22;5826;54.756;9.192;2022-12-10T01:24:03;1.70;99.90
11540;DHT22;5826;54.756;9.192;2022-12-10T01:26:32;1.70;99.90
11540;DHT22;5826;54.756;9.192;2022-12-10T01:28:59;1.80;99.90
11540;DHT22;5826;54.756;9.192;2022-12-10T01:31:30;1.80;99.90
11540;DHT22;5826;54.756;9.192;2022-12-10T01:33:57;1.80;99.90
11540;DHT22;5826;54.756;9.192;2022-12-10T01:36:26;1.90;99.90
11540;DHT22;5826;54.756;9.192;2022-12-10T01:38:52;2.00;99.90
11540;DHT22;5826;54.756;9.192;2022-12-10T01:41:41;2.00;99.90
11540;DHT22;5826;54.756;9.192;2022-12-10T01:46:53;2.10;99.90
11540;DHT22;5826;54.756;9.192;2022-12-10T01:51:49;2.20;99.90
11540;DHT22;5826;54.756;9.192;2022-12-10T01:57:02;2.30;99.90
11540;DHT22;5826;54.756;9.192;2022-12-10T01:59:30;2.30;99.90
11540;DHT22;5826;54.756;9.192;2022-12-10T02:02:08;2.30;99.90
11540;DHT22;5826;54.756;9.192;2022-12-10T02:05:00;2.40;99.90
11540;DHT22;5826;54.756;9.192;2022-12-10T02:15:52;2.40;99.90
11540;DHT22;5826;54.756;9.192;2022-12-10T02:18:26;2.40;99.90
11540;DHT22;5826;54.756;9.192;2022-12-10T02:21:00;2.40;99.90
11540;DHT22;5826;54.756;9.192;2022-12-10T02:23:36;2.40;99.90
11540;DHT22;5826;54.756;9.192;2022-12-10T02:31:14;2.40;99.90
11540;DHT22;5826;54.756;9.192;2022-12-10T02:33:45;2.40;99.90
11540;DHT22;5826;54.756;9.192;2022-12-10T02:36:14;2.40;99.90
11540;DHT22;5826;54.756;9.192;2022-12-10T02:38:41;2.40;99.90
11540;DHT22;5826;54.756;9.192;2022-12-10T02:41:15;2.30;99.90
11540;DHT22;5826;54.756;9.192;2022-12-10T02:43:44;2.30;99.90
11540;DHT22;5826;54.756;9.192;2022-12-10T02:46:11;2.40;99.90
11540;DHT22;5826;54.756;9.192;2022-12-10T02:48:37;2.40;99.90
11540;DHT22;5826;54.756;9.192;2022-12-10T02:51:03;2.40;99.90
11540;DHT22;5826;54.756;9.192;2022-12-10T02:53:29;2.40;99.90
11540;DHT22;5826;54.756;9.192;2022-12-10T03:04:28;2.40;99.90
11540;DHT22;5826;54.756;9.192;2022-12-10T03:06:58;2.40;99.90
11540;DHT22;5826;54.756;9.192;2022-12-10T03:09:31;2.40;99.90
11540;DHT22;5826;54.756;9.192;2022-12-10T03:12:20;2.40;99.90
11540;DHT22;5826;54.756;9.192;2022-12-10T03:14:47;2.40;99.90
11540;DHT22;5826;54.756;9.192;2022-12-10T03:17:13;2.40;99.90
11540;DHT22;5826;54.756;9.192;2022-12-10T03:19:43;2.40;99.90
11540;DHT22;5826;54.756;9.192;2022-12-10T03:22:11;2.40;99.90
11540;DHT22;5826;54.756;9.192;2022-12-10T03:24:39;2.40;99.90
11540;DHT22;5826;54.756;9.192;2022-12-10T03:27:06;2.40;99.90
11540;DHT22;5826;54.756;9.192;2022-12-10T03:29:37;2.40;99.90
11540;DHT22;5826;54.756;9.192;2022-12-10T03:32:03;2.40;99.90
11540;DHT22;5826;54.756;9.192;2022-12-10T03:34:29;2.40;99.90
11540;DHT22;5826;54.756;9.192;2022-12-10T03:36:55;2.40;99.90
11540;DHT22;5826;54.756;9.192;2022-12-10T03:39:21;2.50;99.90
11540;DHT22;5826;54.756;9.192;2022-12-10T03:41:47;2.40;99.90
11540;DHT22;5826;54.756;9.192;2022-12-10T03:44:13;2.40;99.90
11540;DHT22;5826;54.756;9.192;2022-12-10T03:46:38;2.40;99.90
11540;DHT22;5826;54.756;9.192;2022-12-10T03:49:04;2.40;99.90
11540;DHT22;5826;54.756;9.192;2022-12-10T03:51:30;2.40;99.90
11540;DHT22;5826;54.756;9.192;2022-12-10T03:53:55;2.40;99.90
11540;DHT22;5826;54.756;9.192;2022-12-10T03:56:21;2.40;99.90
11540;DHT22;5826;54.756;9.192;2022-12-10T03:58:47;2.40;99.90
11540;DHT22;5826;54.756;9.192;2022-12-10T04:01:13;2.40;99.90
11540;DHT22;5826;54.756;9.192;2022-12-10T04:03:41;2.40;99.90
11540;DHT22;5826;54.756;9.192;2022-12-10T04:06:12;2.40;99.90
11540;DHT22;5826;54.756;9.192;2022-12-10T04:08:38;2.40;99.90
11540;DHT22;5826;54.756;9.192;2022-12-10T04:11:09;2.40;99.90
11540;DHT22;5826;54.756;9.192;2022-12-10T04:13:36;2.30;99.90
11540;DHT22;5826;54.756;9.192;2022-12-10T04:16:21;2.30;99.90
11540;DHT22;5826;54.756;9.192;2022-12-10T04:19:04;2.30;99.90
11540;DHT22;5826;54.756;9.192;2022-12-10T04:21:32;2.30;99.90
11540;DHT22;5826;54.756;9.192;2022-12-10T04:24:20;2.30;99.90
11540;DHT22;5826;54.756;9.192;2022-12-10T04:27:23;2.30;99.90
11540;DHT22;5826;54.756;9.192;2022-12-10T04:29:50;2.30;99.90
11540;DHT22;5826;54.756;9.192;2022-12-10T04:32:16;2.30;99.90
11540;DHT22;5826;54.756;9.192;2022-12-10T04:34:42;2.30;99.90
11540;DHT22;5826;54.756;9.192;2022-12-10T04:37:08;2.30;99.90
11540;DHT22;5826;54.756;9.192;2022-12-10T04:39:34;2.30;99.90
11540;DHT22;5826;54.756;9.192;2022-12-10T04:42:00;2.40;99.90
11540;DHT22;5826;54.756;9.192;2022-12-10T04:44:26;2.30;99.90
11540;DHT22;5826;54.756;9.192;2022-12-10T04:46:52;2.30;99.90
11540;DHT22;5826;54.756;9.192;2022-12-10T04:49:17;2.30;99.90
11540;DHT22;5826;54.756;9.192;2022-12-10T04:51:43;2.40;99.90
11540;DHT22;5826;54.756;9.192;2022-12-10T04:54:09;2.40;99.90
11540;DHT22;5826;54.756;9.192;2022-12-10T04:56:35;2.40;99.90
11540;DHT22;5826;54.756;9.192;2022-12-10T04:59:02;2.40;99.90
11540;DHT22;5826;54.756;9.192;2022-12-10T05:01:28;2.40;99.90
11540;DHT22;5826;54.756;9.192;2022-12-10T05:03:54;2.40;99.90
11540;DHT22;5826;54.756;9.192;2022-12-10T05:06:22;2.40;99.90
11540;DHT22;5826;54.756;9.192;2022-12-10T05:08:48;2.40;99.90
11540;DHT22;5826;54.756;9.192;2022-12-10T05:11:16;2.40;99.90
11540;DHT22;5826;54.756;9.192;2022-12-10T05:13:42;2.40;99.90
11540;DHT22;5826;54.756;9.192;2022-12-10T05:16:11;2.40;99.90
11540;DHT22;5826;54.756;9.192;2022-12-10T05:18:37;2.40;99.90
11540;DHT22;5826;54.756;9.192;2022-12-10T05:21:05;2.40;99.90
11540;DHT22;5826;54.756;9.192;2022-12-10T05:23:32;2.40;99.90
11540;DHT22;5826;54.756;9.192;2022-12-10T05:26:02;2.40;99.90
11540;DHT22;5826;54.756;9.192;2022-12-10T05:28:33;2.40;99.90
11540;DHT22;5826;54.756;9.192;2022-12-10T05:31:00;2.40;99.90
11540;DHT22;5826;54.756;9.192;2022-12-10T05:33:26;2.40;99.90
11540;DHT22;5826;54.756;9.192;2022-12-10T05:35:57;2.40;99.90
11540;DHT22;5826;54.756;9.192;2022-12-10T05:38:23;2.40;99.90
11540;DHT22;5826;54.756;9.192;2022-12-10T05:40:49;2.40;99.90
11540;DHT22;5826;54.756;9.192;2022-12-10T05:43:15;2.40;99.90
11540;DHT22;5826;54.756;9.192;2022-12-10T05:45:40;2.40;99.90
11540;DHT22;5826;54.756;9.192;2022-12-10T05:48:06;2.40;99.90
11540;DHT22;5826;54.756;9.192;2022-12-10T05:50:32;2.40;99.90
11540;DHT22;5826;54.756;9.192;2022-12-10T05:52:58;2.40;99.90
11540;DHT22;5826;54.756;9.192;2022-12-10T05:55:23;2.40;99.90
11540;DHT22;5826;54.756;9.192;2022-12-10T05:57:50;2.40;99.90
11540;DHT22;5826;54.756;9.192;2022-12-10T06:00:15;2.40;99.90
11540;DHT22;5826;54.756;9.192;2022-12-10T06:02:41;2.40;99.90
11540;DHT22;5826;54.756;9.192;2022-12-10T06:05:07;2.40;99.90
11540;DHT22;5826;54.756;9.192;2022-12-10T06:07:32;2.40;99.90
11540;DHT22;5826;54.756;9.192;2022-12-10T06:09:58;2.40;99.90
11540;DHT22;5826;54.756;9.192;2022-12-10T06:12:23;2.40;99.90
11540;DHT22;5826;54.756;9.192;2022-12-10T06:14:49;2.40;99.90
11540;DHT22;5826;54.756;9.192;2022-12-10T06:17:14;2.40;99.90
11540;DHT22;5826;54.756;9.192;2022-12-10T06:19:40;2.30;99.90
11540;DHT22;5826;54.756;9.192;2022-12-10T06:22:05;2.30;99.90
11540;DHT22;5826;54.756;9.192;2022-12-10T06:24:31;2.30;99.90
11540;DHT22;5826;54.756;9.192;2022-12-10T06:26:56;2.30;99.90
11540;DHT22;5826;54.756;9.192;2022-12-10T06:29:22;2.30;99.90
11540;DHT22;5826;54.756;9.192;2022-12-10T06:31:47;2.30;99.90
11540;DHT22;5826;54.756;9.192;2022-12-10T06:34:13;2.30;99.90
11540;DHT22;5826;54.756;9.192;2022-12-10T06:36:38;2.30;99.90
11540;DHT22;5826;54.756;9.192;2022-12-10T06:39:04;2.30;99.90
11540;DHT22;5826;54.756;9.192;2022-12-10T06:41:29;2.40;99.90
11540;DHT22;5826;54.756;9.192;2022-12-10T06:43:55;2.40;99.90
11540;DHT22;5826;54.756;9.192;2022-12-10T06:46:24;2.40;99.90
11540;DHT22;5826;54.756;9.192;2022-12-10T06:48:50;2.40;99.90
11540;DHT22;5826;54.756;9.192;2022-12-10T06:51:16;2.40;99.90
11540;DHT22;5826;54.756;9.192;2022-12-10T06:53:43;2.40;99.90
11540;DHT22;5826;54.756;9.192;2022-12-10T06:56:13;2.40;99.90
11540;DHT22;5826;54.756;9.192;2022-12-10T06:58:39;2.40;99.90
11540;DHT22;5826;54.756;9.192;2022-12-10T07:01:21;2.40;99.90
11540;DHT22;5826;54.756;9.192;2022-12-10T07:03:51;2.40;99.90
11540;DHT22;5826;54.756;9.192;2022-12-10T07:06:18;2.50;99.90
11540;DHT22;5826;54.756;9.192;2022-12-10T07:08:43;2.40;99.90
11540;DHT22;5826;54.756;9.192;2022-12-10T07:11:11;2.40;99.90
11540;DHT22;5826;54.756;9.192;2022-12-10T07:13:37;2.40;99.90
11540;DHT22;5826;54.756;9.192;2022-12-10T07:16:18;2.40;99.90
11540;DHT22;5826;54.756;9.192;2022-12-10T07:18:44;2.40;99.90
11540;DHT22;5826;54.756;9.192;2022-12-10T07:21:18;2.40;99.90
11540;DHT22;5826;54.756;9.192;2022-12-10T07:23:44;2.40;99.90
11540;DHT22;5826;54.756;9.192;2022-12-10T07:26:10;2.40;99.90
11540;DHT22;5826;54.756;9.192;2022-12-10T07:28:36;2.50;99.90
11540;DHT22;5826;54.756;9.192;2022-12-10T07:31:03;2.40;99.90
11540;DHT22;5826;54.756;9.192;2022-12-10T07:33:28;2.40;99.90
11540;DHT22;5826;54.756;9.192;2022-12-10T07:35:54;2.40;99.90
11540;DHT22;5826;54.756;9.192;2022-12-10T07:38:19;2.50;99.90
11540;DHT22;5826;54.756;9.192;2022-12-10T07:40:45;2.50;99.90
11540;DHT22;5826;54.756;9.192;2022-12-10T07:43:10;2.50;99.90
11540;DHT22;5826;54.756;9.192;2022-12-10T07:45:36;2.50;99.90
11540;DHT22;5826;54.756;9.192;2022-12-10T07:48:01;2.50;99.90
11540;DHT22;5826;54.756;9.192;2022-12-10T07:50:27;2.50;99.90
11540;DHT22;5826;54.756;9.192;2022-12-10T07:52:52;2.50;99.90
11540;DHT22;5826;54.756;9.192;2022-12-10T07:55:17;2.50;99.90
11540;DHT22;5826;54.756;9.192;2022-12-10T07:57:43;2.50;99.90
11540;DHT22;5826;54.756;9.192;2022-12-10T08:00:09;2.50;99.90
11540;DHT22;5826;54.756;9.192;2022-12-10T08:02:35;2.50;99.90
11540;DHT22;5826;54.756;9.192;2022-12-10T08:05:00;2.50;99.90
11540;DHT22;5826;54.756;9.192;2022-12-10T08:07:26;2.50;99.90
11540;DHT22;5826;54.756;9.192;2022-12-10T08:09:51;2.50;99.90
11540;DHT22;5826;54.756;9.192;2022-12-10T08:12:17;2.50;99.90
11540;DHT22;5826;54.756;9.192;2022-12-10T08:14:42;2.50;99.90
11540;DHT22;5826;54.756;9.192;2022-12-10T08:17:08;2.50;99.90
11540;DHT22;5826;54.756;9.192;2022-12-10T08:19:33;2.60;99.90
11540;DHT22;5826;54.756;9.192;2022-12-10T08:21:59;2.60;99.90
11540;DHT22;5826;54.756;9.192;2022-12-10T08:24:24;2.60;99.90
11540;DHT22;5826;54.756;9.192;2022-12-10T08:26:50;2.60;99.90
11540;DHT22;5826;54.756;9.192;2022-12-10T08:29:15;2.60;99.90
11540;DHT22;5826;54.756;9.192;2022-12-10T08:31:41;2.60;99.90
11540;DHT22;5826;54.756;9.192;2022-12-10T08:34:14;2.60;99.90
11540;DHT22;5826;54.756;9.192;2022-12-10T08:36:41;2.60;99.90
11540;DHT22;5826;54.756;9.192;2022-12-10T08:39:07;2.60;99.90
11540;DHT22;5826;54.756;9.192;2022-12-10T08:41:33;2.60;99.90
11540;DHT22;5826;54.756;9.192;2022-12-10T08:43:58;2.60;99.90
11540;DHT22;5826;54.756;9.192;2022-12-10T08:46:24;2.60;99.90
11540;DHT22;5826;54.756;9.192;2022-12-10T08:48:51;2.70;99.90
11540;DHT22;5826;54.756;9.192;2022-12-10T08:51:18;2.60;99.90
11540;DHT22;5826;54.756;9.192;2022-12-10T08:53:44;2.60;99.90
11540;DHT22;5826;54.756;9.192;2022-12-10T08:56:10;2.70;99.90
11540;DHT22;5826;54.756;9.192;2022-12-10T08:58:36;2.70;99.90
11540;DHT22;5826;54.756;9.192;2022-12-10T09:01:10;2.70;99.90
11540;DHT22;5826;54.756;9.192;2022-12-10T09:03:36;2.70;99.90
11540;DHT22;5826;54.756;9.192;2022-12-10T09:06:08;2.80;99.90
11540;DHT22;5826;54.756;9.192;2022-12-10T09:08:34;2.80;99.90
11540;DHT22;5826;54.756;9.192;2022-12-10T09:11:27;2.80;99.90
11540;DHT22;5826;54.756;9.192;2022-12-10T09:13:53;2.80;99.90
11540;DHT22;5826;54.756;9.192;2022-12-10T09:16:19;2.80;99.90
11540;DHT22;5826;54.756;9.192;2022-12-10T09:18:45;2.80;99.90
11540;DHT22;5826;54.756;9.192;2022-12-10T09:21:13;2.80;99.90
11540;DHT22;5826;54.756;9.192;2022-12-10T09:23:39;2.80;99.90
11540;DHT22;5826;54.756;9.192;2022-12-10T09:26:10;2.90;99.90
11540;DHT22;5826;54.756;9.192;2022-12-10T09:28:37;2.90;99.90
11540;DHT22;5826;54.756;9.192;2022-12-10T09:31:04;2.90;99.90
11540;DHT22;5826;54.756;9.192;2022-12-10T09:33:30;2.90;99.90
11540;DHT22;5826;54.756;9.192;2022-12-10T09:35:56;3.00;99.90
11540;DHT22;5826;54.756;9.192;2022-12-10T09:38:21;3.00;99.90
11540;DHT22;5826;54.756;9.192;2022-12-10T09:41:04;3.00;99.90
11540;DHT22;5826;54.756;9.192;2022-12-10T09:46:43;3.10;99.90
11540;DHT22;5826;54.756;9.192;2022-12-10T09:51:50;3.10;99.90
11540;DHT22;5826;54.756;9.192;2022-12-10T09:54:36;3.10;99.90
11540;DHT22;5826;54.756;9.192;2022-12-10T09:57:05;3.10;99.90
11540;DHT22;5826;54.756;9.192;2022-12-10T09:59:41;3.20;99.90
11540;DHT22;5826;54.756;9.192;2022-12-10T10:02:26;3.20;99.90
11540;DHT22;5826;54.756;9.192;2022-12-10T10:07:36;3.20;99.90
11540;DHT22;5826;54.756;9.192;2022-12-10T10:10:06;3.20;99.90
11540;DHT22;5826;54.756;9.192;2022-12-10T10:12:34;3.20;99.90
11540;DHT22;5826;54.756;9.192;2022-12-10T10:15:15;3.20;99.90
11540;DHT22;5826;54.756;9.192;2022-12-10T10:17:42;3.20;99.90
11540;DHT22;5826;54.756;9.192;2022-12-10T10:20:11;3.20;99.90
11540;DHT22;5826;54.756;9.192;2022-12-10T10:22:38;3.20;99.90
11540;DHT22;5826;54.756;9.192;2022-12-10T10:25:05;3.30;99.90
11540;DHT22;5826;54.756;9.192;2022-12-10T10:27:31;3.30;99.90
11540;DHT22;5826;54.756;9.192;2022-12-10T10:30:03;3.30;99.90
11540;DHT22;5826;54.756;9.192;2022-12-10T10:35:00;3.40;99.90
11540;DHT22;5826;54.756;9.192;2022-12-10T10:37:39;3.40;99.90
11540;DHT22;5826;54.756;9.192;2022-12-10T10:40:06;3.40;99.90
11540;DHT22;5826;54.756;9.192;2022-12-10T10:42:34;3.50;99.90
11540;DHT22;5826;54.756;9.192;2022-12-10T10:45:06;3.50;99.90
11540;DHT22;5826;54.756;9.192;2022-12-10T10:47:34;3.50;99.90
11540;DHT22;5826;54.756;9.192;2022-12-10T10:50:05;3.40;99.90
11540;DHT22;5826;54.756;9.192;2022-12-10T10:52:37;3.40;99.90
11540;DHT22;5826;54.756;9.192;2022-12-10T10:55:02;3.40;99.90
11540;DHT22;5826;54.756;9.192;2022-12-10T10:57:35;3.40;99.90
11540;DHT22;5826;54.756;9.192;2022-12-10T11:00:17;3.40;99.90
11540;DHT22;5826;54.756;9.192;2022-12-10T11:02:43;3.40;99.90
11540;DHT22;5826;54.756;9.192;2022-12-10T11:05:38;3.40;99.90
11540;DHT22;5826;54.756;9.192;2022-12-10T11:08:08;3.50;99.90
11540;DHT22;5826;54.756;9.192;2022-12-10T11:10:50;3.40;99.90
11540;DHT22;5826;54.756;9.192;2022-12-10T11:13:23;3.40;99.90
11540;DHT22;5826;54.756;9.192;2022-12-10T11:16:18;3.40;99.90
11540;DHT22;5826;54.756;9.192;2022-12-10T11:19:00;3.40;99.90
11540;DHT22;5826;54.756;9.192;2022-12-10T11:21:32;3.40;99.90
11540;DHT22;5826;54.756;9.192;2022-12-10T11:23:58;3.30;99.90
11540;DHT22;5826;54.756;9.192;2022-12-10T11:26:45;3.40;99.90
11540;DHT22;5826;54.756;9.192;2022-12-10T11:29:31;3.30;99.90
11540;DHT22;5826;54.756;9.192;2022-12-10T11:35:05;3.30;99.90
11540;DHT22;5826;54.756;9.192;2022-12-10T11:37:47;3.30;99.90
11540;DHT22;5826;54.756;9.192;2022-12-10T11:54:27;3.20;99.90
11540;DHT22;5826;54.756;9.192;2022-12-10T11:57:13;3.20;99.90
11540;DHT22;5826;54.756;9.192;2022-12-10T12:00:05;3.20;99.90
11540;DHT22;5826;54.756;9.192;2022-12-10T12:03:06;3.20;99.90
11540;DHT22;5826;54.756;9.192;2022-12-10T12:09:10;3.20;99.90
11540;DHT22;5826;54.756;9.192;2022-12-10T12:14:54;3.20;99.90
11540;DHT22;5826;54.756;9.192;2022-12-10T12:17:30;3.10;99.90
11540;DHT22;5826;54.756;9.192;2022-12-10T12:20:25;3.10;99.90
11540;DHT22;5826;54.756;9.192;2022-12-10T12:23:09;3.10;99.90
11540;DHT22;5826;54.756;9.192;2022-12-10T12:25:39;3.10;99.90
11540;DHT22;5826;54.756;9.192;2022-12-10T12:30:53;3.10;99.90
11540;DHT22;5826;54.756;9.192;2022-12-10T12:36:00;3.10;99.90
11540;DHT22;5826;54.756;9.192;2022-12-10T12:38:31;3.10;99.90
11540;DHT22;5826;54.756;9.192;2022-12-10T12:46:04;3.00;99.90
11540;DHT22;5826;54.756;9.192;2022-12-10T12:48:53;3.00;99.90
11540;DHT22;5826;54.756;9.192;2022-12-10T12:53:50;2.90;99.90
11540;DHT22;5826;54.756;9.192;2022-12-10T12:59:03;2.90;99.90
11540;DHT22;5826;54.756;9.192;2022-12-10T13:04:05;3.00;99.90
11540;DHT22;5826;54.756;9.192;2022-12-10T13:06:37;3.00;99.90
11540;DHT22;5826;54.756;9.192;2022-12-10T13:11:38;3.00;99.90
11540;DHT22;5826;54.756;9.192;2022-12-10T13:24:19;3.00;99.90
11540;DHT22;5826;54.756;9.192;2022-12-10T13:29:28;2.90;99.90
11540;DHT22;5826;54.756;9.192;2022-12-10T13:32:19;3.00;99.90
11540;DHT22;5826;54.756;9.192;2022-12-10T13:34:46;3.00;99.90
11540;DHT22;5826;54.756;9.192;2022-12-10T13:37:26;2.90;99.90
11540;DHT22;5826;54.756;9.192;2022-12-10T13:40:00;2.90;99.90
11540;DHT22;5826;54.756;9.192;2022-12-10T13:42:30;2.90;99.90
11540;DHT22;5826;54.756;9.192;2022-12-10T13:50:45;2.90;99.90
11540;DHT22;5826;54.756;9.192;2022-12-10T14:01:16;2.80;99.90
11540;DHT22;5826;54.756;9.192;2022-12-10T14:06:38;2.80;99.90
11540;DHT22;5826;54.756;9.192;2022-12-10T14:09:06;2.80;99.90
11540;DHT22;5826;54.756;9.192;2022-12-10T14:11:43;2.70;99.90
11540;DHT22;5826;54.756;9.192;2022-12-10T14:14:15;2.80;99.90
11540;DHT22;5826;54.756;9.192;2022-12-10T14:16:42;2.70;99.90
11540;DHT22;5826;54.756;9.192;2022-12-10T14:19:13;2.70;99.90
11540;DHT22;5826;54.756;9.192;2022-12-10T14:21:41;2.70;99.90
11540;DHT22;5826;54.756;9.192;2022-12-10T14:24:27;2.60;99.90
11540;DHT22;5826;54.756;9.192;2022-12-10T14:27:14;2.60;99.90
11540;DHT22;5826;54.756;9.192;2022-12-10T14:29:47;2.60;99.90
11540;DHT22;5826;54.756;9.192;2022-12-10T14:32:20;2.60;99.90
11540;DHT22;5826;54.756;9.192;2022-12-10T14:34:53;2.50;99.90
11540;DHT22;5826;54.756;9.192;2022-12-10T14:37:27;2.50;99.90
11540;DHT22;5826;54.756;9.192;2022-12-10T14:39:53;2.50;99.90
11540;DHT22;5826;54.756;9.192;2022-12-10T14:42:19;2.60;99.90
11540;DHT22;5826;54.756;9.192;2022-12-10T14:44:45;2.50;99.90
11540;DHT22;5826;54.756;9.192;2022-12-10T14:47:20;2.50;99.90
11540;DHT22;5826;54.756;9.192;2022-12-10T14:49:48;2.50;99.90
11540;DHT22;5826;54.756;9.192;2022-12-10T14:52:22;2.50;99.90
11540;DHT22;5826;54.756;9.192;2022-12-10T14:54:48;2.50;99.90
11540;DHT22;5826;54.756;9.192;2022-12-10T14:57:34;2.50;99.90
11540;DHT22;5826;54.756;9.192;2022-12-10T15:00:06;2.50;99.90
11540;DHT22;5826;54.756;9.192;2022-12-10T15:02:40;2.50;99.90
11540;DHT22;5826;54.756;9.192;2022-12-10T15:05:27;2.50;99.90
11540;DHT22;5826;54.756;9.192;2022-12-10T15:08:05;2.40;99.90
11540;DHT22;5826;54.756;9.192;2022-12-10T15:10:37;2.40;99.90
11540;DHT22;5826;54.756;9.192;2022-12-10T15:13:05;2.40;99.90
11540;DHT22;5826;54.756;9.192;2022-12-10T15:15:35;2.40;99.90
11540;DHT22;5826;54.756;9.192;2022-12-10T15:20:52;2.40;99.90
11540;DHT22;5826;54.756;9.192;2022-12-10T15:28:27;2.40;99.90
11540;DHT22;5826;54.756;9.192;2022-12-10T15:34:15;2.40;99.90
11540;DHT22;5826;54.756;9.192;2022-12-10T15:36:48;2.40;99.90
11540;DHT22;5826;54.756;9.192;2022-12-10T15:39:30;2.40;99.90
11540;DHT22;5826;54.756;9.192;2022-12-10T15:41:58;2.40;99.90
11540;DHT22;5826;54.756;9.192;2022-12-10T15:49:40;2.40;99.90
11540;DHT22;5826;54.756;9.192;2022-12-10T15:52:08;2.40;99.90
11540;DHT22;5826;54.756;9.192;2022-12-10T15:54:39;2.40;99.90
11540;DHT22;5826;54.756;9.192;2022-12-10T15:57:13;2.40;99.90
11540;DHT22;5826;54.756;9.192;2022-12-10T15:59:40;2.30;99.90
11540;DHT22;5826;54.756;9.192;2022-12-10T16:02:24;2.30;99.90
11540;DHT22;5826;54.756;9.192;2022-12-10T16:04:51;2.30;99.90
11540;DHT22;5826;54.756;9.192;2022-12-10T16:07:17;2.20;99.90
11540;DHT22;5826;54.756;9.192;2022-12-10T16:09:43;2.20;99.90
11540;DHT22;5826;54.756;9.192;2022-12-10T16:12:11;2.20;99.90
11540;DHT22;5826;54.756;9.192;2022-12-10T16:14:37;2.20;99.90
11540;DHT22;5826;54.756;9.192;2022-12-10T16:17:03;2.20;99.90
11540;DHT22;5826;54.756;9.192;2022-12-10T16:19:29;2.10;99.90
11540;DHT22;5826;54.756;9.192;2022-12-10T16:21:54;2.10;99.90
11540;DHT22;5826;54.756;9.192;2022-12-10T16:24:20;2.10;99.90
11540;DHT22;5826;54.756;9.192;2022-12-10T16:26:45;2.10;99.90
11540;DHT22;5826;54.756;9.192;2022-12-10T16:29:11;2.20;99.90
11540;DHT22;5826;54.756;9.192;2022-12-10T16:31:36;2.20;99.90
11540;DHT22;5826;54.756;9.192;2022-12-10T16:34:02;2.20;99.90
11540;DHT22;5826;54.756;9.192;2022-12-10T16:36:27;2.20;99.90
11540;DHT22;5826;54.756;9.192;2022-12-10T16:38:53;2.20;99.90
11540;DHT22;5826;54.756;9.192;2022-12-10T16:41:21;2.20;99.90
11540;DHT22;5826;54.756;9.192;2022-12-10T16:43:47;2.20;99.90
11540;DHT22;5826;54.756;9.192;2022-12-10T16:46:13;2.20;99.90
11540;DHT22;5826;54.756;9.192;2022-12-10T16:48:39;2.20;99.90
11540;DHT22;5826;54.756;9.192;2022-12-10T16:51:13;2.20;99.90
11540;DHT22;5826;54.756;9.192;2022-12-10T16:53:39;2.20;99.90
11540;DHT22;5826;54.756;9.192;2022-12-10T16:56:07;2.10;99.90
11540;DHT22;5826;54.756;9.192;2022-12-10T16:58:32;2.10;99.90
11540;DHT22;5826;54.756;9.192;2022-12-10T17:00:58;2.20;99.90
11540;DHT22;5826;54.756;9.192;2022-12-10T17:03:25;2.10;99.90
11540;DHT22;5826;54.756;9.192;2022-12-10T17:05:56;2.10;99.90
11540;DHT22;5826;54.756;9.192;2022-12-10T17:08:23;2.10;99.90
11540;DHT22;5826;54.756;9.192;2022-12-10T17:10:48;2.10;99.90
11540;DHT22;5826;54.756;9.192;2022-12-10T17:13:33;2.10;99.90
11540;DHT22;5826;54.756;9.192;2022-12-10T17:15:59;2.10;99.90
11540;DHT22;5826;54.756;9.192;2022-12-10T17:18:25;2.10;99.90
11540;DHT22;5826;54.756;9.192;2022-12-10T17:20:51;2.10;99.90
11540;DHT22;5826;54.756;9.192;2022-12-10T17:23:17;2.10;99.90
11540;DHT22;5826;54.756;9.192;2022-12-10T17:25:43;2.10;99.90
11540;DHT22;5826;54.756;9.192;2022-12-10T17:28:18;2.10;99.90
11540;DHT22;5826;54.756;9.192;2022-12-10T17:30:44;2.10;99.90
11540;DHT22;5826;54.756;9.192;2022-12-10T17:33:18;2.10;99.90
11540;DHT22;5826;54.756;9.192;2022-12-10T17:35:45;2.20;99.90
11540;DHT22;5826;54.756;9.192;2022-12-10T17:38:16;2.10;99.90
11540;DHT22;5826;54.756;9.192;2022-12-10T17:40:43;2.10;99.90
11540;DHT22;5826;54.756;9.192;2022-12-10T17:43:08;2.20;99.90
11540;DHT22;5826;54.756;9.192;2022-12-10T17:45:34;2.10;99.90
11540;DHT22;5826;54.756;9.192;2022-12-10T17:47:59;2.10;99.90
11540;DHT22;5826;54.756;9.192;2022-12-10T17:50:30;2.10;99.90
11540;DHT22;5826;54.756;9.192;2022-12-10T17:52:58;2.10;99.90
11540;DHT22;5826;54.756;9.192;2022-12-10T17:55:25;2.10;99.90
11540;DHT22;5826;54.756;9.192;2022-12-10T17:57:52;2.00;99.90
11540;DHT22;5826;54.756;9.192;2022-12-10T18:00:20;2.00;99.90
11540;DHT22;5826;54.756;9.192;2022-12-10T18:02:47;1.90;99.90
11540;DHT22;5826;54.756;9.192;2022-12-10T18:05:12;2.00;99.90
11540;DHT22;5826;54.756;9.192;2022-12-10T18:07:38;1.90;99.90
11540;DHT22;5826;54.756;9.192;2022-12-10T18:10:06;1.90;99.90
11540;DHT22;5826;54.756;9.192;2022-12-10T18:12:33;2.00;99.90
11540;DHT22;5826;54.756;9.192;2022-12-10T18:14:59;2.00;99.90
11540;DHT22;5826;54.756;9.192;2022-12-10T18:17:24;2.00;99.90
11540;DHT22;5826;54.756;9.192;2022-12-10T18:19:50;2.00;99.90
11540;DHT22;5826;54.756;9.192;2022-12-10T18:22:16;2.00;99.90
11540;DHT22;5826;54.756;9.192;2022-12-10T18:24:41;2.00;99.90
11540;DHT22;5826;54.756;9.192;2022-12-10T18:27:10;2.00;99.90